Погода Эстасьон-Коауилана неделю

Нижняя Калифорния, Мексика

17 - 23 июля
  • 17июля
    Сегодня
    +27°
    +42°
    Ясно и безоблачно
    ВремяПогодаТемператураВлажностьДавлениеВетер, м/сВероятность осадков
    02:00Ясно и безоблачно+31°C54 %754 мм3.8 м/с2 %
    05:00Ясно и безоблачно+27°C60 %755 мм2.5 м/с2 %
    08:00Ясно и безоблачно+30°C52 %756 мм2.0 м/с2 %
    11:00Ясно и безоблачно+38°C28 %756 мм5.2 м/с2 %
    14:00Ясно и безоблачно+41°C20 %755 мм4.8 м/с2 %
    17:00Ясно и безоблачно+41°C20 %753 мм3.8 м/с2 %
    20:00Ясно и безоблачно+33°C31 %754 мм4.7 м/с2 %
    23:00Ясно и безоблачно+30°C47 %755 мм4.6 м/с2 %
  • 18июля
    Четверг
    +28°
    +43°
    Практически безоблачно
    ВремяПогодаТемператураВлажностьДавлениеВетер, м/сВероятность осадков
    02:00Ясно и безоблачно+30°C54 %754 мм2.9 м/с2 %
    05:00Ясно и безоблачно+28°C53 %755 мм4.4 м/с2 %
    08:00Ясно и безоблачно+31°C50 %757 мм4.0 м/с2 %
    11:00Практически безоблачно+39°C25 %757 мм4.5 м/с2 %
    14:00Практически безоблачно+42°C19 %756 мм4.6 м/с2 %
    17:00Небольшая облачность+43°C18 %754 мм1.5 м/с1 %
    20:00Ясно и безоблачно+36°C26 %755 мм4.9 м/с2 %
    23:00Ясно и безоблачно+33°C34 %756 мм3.2 м/с2 %
  • 19июля
    Пятница
    +29°
    +44°
    Небольшая облачность
    ВремяПогодаТемператураВлажностьДавлениеВетер, м/сВероятность осадков
    02:00Ясно и безоблачно+32°C43 %755 мм2.0 м/с2 %
    05:00Ясно и безоблачно+29°C56 %755 мм2.8 м/с2 %
    08:00Ясно и безоблачно+32°C46 %756 мм1.6 м/с2 %
    11:00Ясно и безоблачно+40°C24 %756 мм1.9 м/с2 %
    14:00Небольшая облачность+43°C16 %755 мм1.7 м/с6 %
    17:00Практически безоблачно+44°C15 %753 мм2.8 м/с2 %
    20:00Ясно и безоблачно+39°C19 %754 мм2.5 м/с2 %
    23:00Ясно и безоблачно+35°C29 %754 мм3.1 м/с2 %
  • 20июля
    Суббота
    +29°
    +44°
    Практически безоблачно
    ВремяПогодаТемператураВлажностьДавлениеВетер, м/сВероятность осадков
    02:00Ясно и безоблачно+34°C32 %754 мм2.1 м/с2 %
    05:00Ясно и безоблачно+31°C35 %754 мм2.5 м/с2 %
    08:00Ясно и безоблачно+33°C43 %756 мм2.0 м/с2 %
    11:00Ясно и безоблачно+41°C21 %755 мм2.3 м/с2 %
    14:00Практически безоблачно+44°C17 %754 мм4.7 м/с2 %
    17:00Ясно и безоблачно+44°C15 %752 мм3.0 м/с2 %
    20:00Ясно и безоблачно+37°C28 %753 мм6.0 м/с2 %
    23:00Ясно и безоблачно+33°C37 %753 мм5.5 м/с2 %
  • 21июля
    Воскресенье
    +28°
    +45°
    Ясно и безоблачно
    ВремяПогодаТемператураВлажностьДавлениеВетер, м/сВероятность осадков
    02:00Ясно и безоблачно+34°C40 %753 мм3.9 м/с2 %
    05:00Ясно и безоблачно+30°C54 %753 мм3.2 м/с2 %
    08:00Ясно и безоблачно+33°C50 %755 мм4.5 м/с2 %
    11:00Ясно и безоблачно+39°C31 %755 мм3.8 м/с2 %
    14:00Ясно и безоблачно+43°C21 %753 мм4.6 м/с7 %
    17:00Ясно и безоблачно+44°C16 %752 мм3.3 м/с4 %
    20:00Ясно и безоблачно+34°C39 %752 мм6.4 м/с2 %
    23:00Ясно и безоблачно+31°C56 %753 мм5.6 м/с2 %
Мы используем cookies
Соглашаюсь